createdAt,value
2023-04-07T00:00:52.238Z,100097.98
2023-04-07T00:01:55.751Z,100095.33
2023-04-07T00:02:59.870Z,100099.03
2023-04-07T00:04:03.749Z,100100.32
2023-04-07T00:05:08.155Z,100102.28
2023-04-07T00:06:11.846Z,100102.53
2023-04-07T00:07:15.350Z,100092.17
2023-04-07T00:08:20.452Z,100101.72
2023-04-07T00:09:24.932Z,100102.36
2023-04-07T00:10:27.642Z,100100.98
2023-04-07T00:11:33.531Z,100098.34
2023-04-07T00:12:37.742Z,100110.12
2023-04-07T00:13:42.047Z,100100.45
2023-04-07T00:14:46.663Z,100107.99
2023-04-07T00:15:50.170Z,100113.54
2023-04-07T00:16:53.787Z,100102.28
2023-04-07T00:17:57.447Z,100101.43
2023-04-07T00:19:01.840Z,100107.34
2023-04-07T00:20:04.829Z,100105.02
2023-04-07T00:21:08.583Z,100103.81
2023-04-07T00:22:11.993Z,100110.05
2023-04-07T00:23:15.236Z,100107.05
2023-04-07T00:24:31.153Z,100108.67
2023-04-07T00:25:25.810Z,100111.58
2023-04-07T00:26:32.117Z,100106.23
2023-04-07T00:27:38.236Z,100115.11
2023-04-07T00:28:44.482Z,100115.28
2023-04-07T00:29:48.349Z,100122.44
2023-04-07T00:30:51.589Z,100119.96
2023-04-07T00:31:55.389Z,100117.52
2023-04-07T00:32:59.304Z,100117.77
2023-04-07T00:34:03.018Z,100117.69
2023-04-07T00:35:09.810Z,100127.16
2023-04-07T00:36:14.133Z,100114.34
2023-04-07T00:37:18.244Z,100111.44
2023-04-07T00:38:21.465Z,100126.10
2023-04-07T00:39:27.024Z,100119.65
2023-04-07T00:40:31.252Z,100125.62
2023-04-07T00:41:35.008Z,100122.29
2023-04-07T00:42:39.456Z,100121.19
2023-04-07T00:43:46.579Z,100119.63
2023-04-07T00:44:49.657Z,100123.13
2023-04-07T00:45:53.491Z,100130.53
2023-04-07T00:46:58.076Z,100126.64
2023-04-07T00:48:00.357Z,100126.39
2023-04-07T00:49:04.046Z,100128.52
2023-04-07T00:50:08.305Z,100136.03
2023-04-07T00:51:11.062Z,100137.62
2023-04-07T00:52:15.150Z,100124.17
2023-04-07T00:53:19.979Z,100130.91
2023-04-07T00:54:30.680Z,100133.80
2023-04-07T00:55:36.693Z,100128.69
2023-04-07T00:56:41.896Z,100129.81
2023-04-07T00:57:48.241Z,100136.80
2023-04-07T00:58:51.506Z,100141.23
2023-04-07T00:59:56.702Z,100137.89
2023-04-07T01:01:02.047Z,100145.37
2023-04-07T01:02:13.138Z,100135.48
2023-04-07T01:03:21.148Z,100138.98
2023-04-07T01:04:31.474Z,100146.14
2023-04-07T01:05:48.293Z,100149.04
2023-04-07T01:06:53.433Z,100150.34
2023-04-07T01:08:05.140Z,100140.27
2023-04-07T01:09:13.644Z,100139.69
2023-04-07T01:10:19.753Z,100138.67
2023-04-07T01:11:42.727Z,100145.98
2023-04-07T01:12:53.347Z,100142.05
2023-04-07T01:14:01.153Z,100141.64
2023-04-07T01:15:13.752Z,100147.01
2023-04-07T01:16:38.039Z,100146.08
2023-04-07T01:17:42.686Z,100143.52
2023-04-07T01:18:47.838Z,100155.78
2023-04-07T01:19:55.647Z,100152.37
2023-04-07T01:21:03.381Z,100152.97
2023-04-07T01:22:09.688Z,100157.63
2023-04-07T01:23:15.793Z,100155.61
2023-04-07T01:24:23.299Z,100151.80
2023-04-07T01:25:45.409Z,100155.95
2023-04-07T01:26:49.807Z,100152.05
2023-04-07T01:27:54.811Z,100152.37
2023-04-07T01:29:05.348Z,100162.52
2023-04-07T01:30:10.205Z,100163.96
2023-04-07T01:31:14.628Z,100160.39
2023-04-07T01:32:20.817Z,100154.86
2023-04-07T01:33:25.602Z,100162.70
2023-04-07T01:34:31.870Z,100159.05
2023-04-07T01:35:37.533Z,100162.02
2023-04-07T01:36:46.412Z,100161.84
2023-04-07T01:37:49.958Z,100168.39
2023-04-07T01:38:56.000Z,100162.87
2023-04-07T01:39:59.135Z,100164.48
2023-04-07T01:41:02.676Z,100170.95
2023-04-07T01:42:06.368Z,100173.88
2023-04-07T01:43:10.224Z,100166.96
2023-04-07T01:44:13.466Z,100170.80
2023-04-07T01:45:17.629Z,100166.11
2023-04-07T01:46:20.835Z,100161.77
2023-04-07T01:47:24.312Z,100160.75
2023-04-07T01:48:28.994Z,100170.09
2023-04-07T01:49:33.796Z,100175.72
2023-04-07T01:50:40.372Z,100173.66
2023-04-07T01:51:45.415Z,100175.37
2023-04-07T01:52:49.614Z,100173.88
2023-04-07T01:53:53.366Z,100177.84
2023-04-07T01:54:58.189Z,100171.63
2023-04-07T01:56:02.241Z,100178.46
2023-04-07T01:57:05.777Z,100171.15
2023-04-07T01:58:09.057Z,100176.60
2023-04-07T01:59:14.396Z,100171.41
2023-04-07T02:00:18.919Z,100178.72
2023-04-07T02:01:24.089Z,100178.72
2023-04-07T02:02:27.241Z,100177.38
2023-04-07T02:03:33.632Z,100174.73
2023-04-07T02:04:49.839Z,100179.39
2023-04-07T02:05:53.951Z,100175.45
2023-04-07T02:07:01.542Z,100184.06
2023-04-07T02:08:08.623Z,100179.91
2023-04-07T02:09:11.653Z,100175.13
2023-04-07T02:10:15.862Z,100185.17
2023-04-07T02:11:21.170Z,100177.86
2023-04-07T02:12:27.450Z,100185.09
2023-04-07T02:13:36.637Z,100182.13
2023-04-07T02:14:40.172Z,100184.45
2023-04-07T02:15:48.039Z,100186.40
2023-04-07T02:16:54.317Z,100179.72
2023-04-07T02:17:58.458Z,100182.20
2023-04-07T02:19:04.662Z,100183.91
2023-04-07T02:20:08.210Z,100186.78
2023-04-07T02:21:14.859Z,100184.06
2023-04-07T02:22:20.232Z,100190.95
2023-04-07T02:23:23.880Z,100189.32
2023-04-07T02:24:27.086Z,100191.88
2023-04-07T02:25:30.978Z,100187.83
2023-04-07T02:26:35.642Z,100189.32
2023-04-07T02:27:38.896Z,100193.27
2023-04-07T02:28:41.365Z,100195.84
2023-04-07T02:29:45.596Z,100187.06
2023-04-07T02:30:48.444Z,100194.79
2023-04-07T02:31:50.941Z,100181.42
2023-04-07T02:32:54.504Z,100182.30
2023-04-07T02:33:58.071Z,100191.48
2023-04-07T02:35:01.255Z,100186.13
2023-04-07T02:36:08.735Z,100184.08
2023-04-07T02:37:15.153Z,100192.55
2023-04-07T02:38:18.378Z,100191.53
2023-04-07T02:39:23.434Z,100195.45
2023-04-07T02:40:27.026Z,100200.47
2023-04-07T02:41:30.224Z,100200.89
2023-04-07T02:42:33.567Z,100205.94
2023-04-07T02:43:35.798Z,100203.72
2023-04-07T02:44:41.869Z,100201.55
2023-04-07T02:45:45.805Z,100201.42
2023-04-07T02:46:49.133Z,100201.62
2023-04-07T02:47:52.875Z,100205.90
2023-04-07T02:48:55.759Z,100202.79
2023-04-07T02:49:58.065Z,100206.52
2023-04-07T02:51:01.761Z,100206.98
2023-04-07T02:52:04.766Z,100203.26
2023-04-07T02:53:06.970Z,100209.23
2023-04-07T02:54:12.218Z,100204.58
2023-04-07T02:55:15.092Z,100208.81
2023-04-07T02:56:19.327Z,100214.95
2023-04-07T02:57:21.934Z,100208.07
2023-04-07T02:58:26.140Z,100216.58
2023-04-07T02:59:30.912Z,100220.85
2023-04-07T03:00:34.556Z,100214.80
2023-04-07T03:01:41.744Z,100218.12
2023-04-07T03:02:45.411Z,100221.86
2023-04-07T03:03:49.354Z,100221.86
2023-04-07T03:04:54.391Z,100221.09
2023-04-07T03:05:58.065Z,100227.84
2023-04-07T03:07:02.431Z,100223.49
2023-04-07T03:08:07.216Z,100228.45
2023-04-07T03:09:10.582Z,100227.77
2023-04-07T03:10:14.049Z,100218.45
2023-04-07T03:11:17.339Z,100233.70
2023-04-07T03:12:20.247Z,100230.98
2023-04-07T03:13:24.893Z,100222.16
2023-04-07T03:14:28.387Z,100234.08
2023-04-07T03:15:30.936Z,100227.81
2023-04-07T03:16:33.495Z,100227.52
2023-04-07T03:17:41.429Z,100234.34
2023-04-07T03:18:44.005Z,100234.42
2023-04-07T03:19:48.286Z,100235.09
2023-04-07T03:20:56.542Z,100228.29
2023-04-07T03:21:59.663Z,100232.64
2023-04-07T03:23:02.733Z,100237.58
2023-04-07T03:24:08.132Z,100235.87
2023-04-07T03:25:11.460Z,100238.59
2023-04-07T03:26:20.162Z,100243.20
2023-04-07T03:27:23.368Z,100237.92
2023-04-07T03:28:27.806Z,100243.34
2023-04-07T03:29:31.657Z,100240.08
2023-04-07T03:30:37.708Z,100241.23
2023-04-07T03:31:41.364Z,100243.73
2023-04-07T03:32:48.329Z,100242.88
2023-04-07T03:33:51.798Z,100246.70
2023-04-07T03:34:55.671Z,100248.48
2023-04-07T03:35:59.928Z,100252.77
2023-04-07T03:37:02.940Z,100249.08
2023-04-07T03:38:07.316Z,100246.29
2023-04-07T03:39:12.312Z,100246.22
2023-04-07T03:40:15.748Z,100246.29
2023-04-07T03:41:19.009Z,100257.85
2023-04-07T03:42:23.667Z,100246.37
2023-04-07T03:43:28.724Z,100255.47
2023-04-07T03:44:31.447Z,100258.56
2023-04-07T03:45:37.770Z,100254.28
2023-04-07T03:46:43.040Z,100254.20
2023-04-07T03:47:46.802Z,100257.78
2023-04-07T03:48:50.125Z,100259.19
2023-04-07T03:49:53.393Z,100261.13
2023-04-07T03:50:57.230Z,100257.70
2023-04-07T03:52:00.447Z,100260.34
2023-04-07T03:53:03.309Z,100262.98
2023-04-07T03:54:07.335Z,100264.62
2023-04-07T03:55:12.649Z,100261.75
2023-04-07T03:56:17.383Z,100264.39
2023-04-07T03:57:25.500Z,100262.61
2023-04-07T03:58:29.329Z,100269.75
2023-04-07T03:59:33.333Z,100269.04
2023-04-07T04:00:38.443Z,100269.89
2023-04-07T04:01:45.768Z,100278.52
2023-04-07T04:02:50.176Z,100275.87
2023-04-07T04:03:56.035Z,100281.28
2023-04-07T04:05:01.585Z,100281.36
2023-04-07T04:06:05.096Z,100284.78
2023-04-07T04:07:08.332Z,100282.44
2023-04-07T04:08:13.724Z,100280.73
2023-04-07T04:09:20.313Z,100279.65
2023-04-07T04:10:24.620Z,100287.72
2023-04-07T04:11:29.098Z,100287.49
2023-04-07T04:12:35.038Z,100289.72
2023-04-07T04:13:41.148Z,100289.20
2023-04-07T04:14:45.013Z,100288.34
2023-04-07T04:15:49.385Z,100292.85
2023-04-07T04:16:56.669Z,100298.15
2023-04-07T04:18:04.207Z,100294.41
2023-04-07T04:19:08.046Z,100291.63
2023-04-07T04:20:11.922Z,100296.66
2023-04-07T04:21:17.268Z,100297.33
2023-04-07T04:22:19.713Z,100304.05
2023-04-07T04:23:24.180Z,100297.95
2023-04-07T04:24:28.097Z,100298.41
2023-04-07T04:25:34.635Z,100305.59
2023-04-07T04:26:38.601Z,100302.17
2023-04-07T04:27:43.843Z,100307.63
2023-04-07T04:28:48.947Z,100303.97
2023-04-07T04:29:52.651Z,100305.52
2023-04-07T04:30:57.748Z,100313.01
2023-04-07T04:32:01.375Z,100310.98
2023-04-07T04:33:06.391Z,100308.50
2023-04-07T04:34:23.570Z,100311.14
2023-04-07T04:35:27.067Z,100316.44
2023-04-07T04:36:45.060Z,100321.08
2023-04-07T04:37:48.755Z,100311.84
2023-04-07T04:38:52.477Z,100311.84
2023-04-07T04:40:01.245Z,100315.09
2023-04-07T04:41:06.892Z,100309.64
2023-04-07T04:42:09.714Z,100317.46
2023-04-07T04:43:13.070Z,100320.02
2023-04-07T04:44:17.958Z,100314.25
2023-04-07T04:45:20.306Z,100317.81
2023-04-07T04:46:27.824Z,100330.69
2023-04-07T04:47:32.528Z,100326.80
2023-04-07T04:48:36.366Z,100325.33
2023-04-07T04:49:40.740Z,100323.45
2023-04-07T04:50:45.177Z,100331.13
2023-04-07T04:51:49.433Z,100337.22
2023-04-07T04:52:53.408Z,100330.80
2023-04-07T04:53:58.763Z,100326.80
2023-04-07T04:55:02.109Z,100333.03
2023-04-07T04:56:05.251Z,100328.41
2023-04-07T04:57:16.743Z,100332.08
2023-04-07T04:58:20.245Z,100336.41
2023-04-07T04:59:27.414Z,100336.88
2023-04-07T05:00:40.930Z,100333.38
2023-04-07T05:01:44.988Z,100338.23
2023-04-07T05:02:53.153Z,100342.06
2023-04-07T05:03:57.021Z,100354.72
2023-04-07T05:05:02.551Z,100359.49
2023-04-07T05:06:05.434Z,100365.36
2023-04-07T05:07:09.111Z,100379.70
2023-04-07T05:08:12.652Z,100370.30
2023-04-07T05:09:17.058Z,100374.30
2023-04-07T05:10:25.831Z,100368.84
2023-04-07T05:11:28.340Z,100380.25
2023-04-07T05:12:33.466Z,100386.21
2023-04-07T05:13:37.875Z,100381.72
2023-04-07T05:14:41.278Z,100382.42
2023-04-07T05:15:44.800Z,100388.88
2023-04-07T05:16:49.382Z,100384.64
2023-04-07T05:17:54.300Z,100388.49
2023-04-07T05:19:01.646Z,100389.61
2023-04-07T05:20:05.035Z,100407.50
2023-04-07T05:21:10.063Z,100406.51
2023-04-07T05:22:13.560Z,100404.28
2023-04-07T05:23:18.567Z,100404.16
2023-04-07T05:24:23.549Z,100400.02
2023-04-07T05:25:28.600Z,100412.02
2023-04-07T05:26:33.849Z,100410.48
2023-04-07T05:27:39.388Z,100413.08
2023-04-07T05:28:44.404Z,100426.09
2023-04-07T05:29:49.972Z,100405.45
2023-04-07T05:30:55.254Z,100397.34
2023-04-07T05:32:03.934Z,100400.13
2023-04-07T05:33:08.547Z,100396.03
2023-04-07T05:34:16.892Z,100411.64
2023-04-07T05:35:21.784Z,100405.12
2023-04-07T05:36:31.086Z,100404.73
2023-04-07T05:37:34.476Z,100402.11
2023-04-07T05:38:39.591Z,100417.05
2023-04-07T05:39:44.877Z,100408.88
2023-04-07T05:40:52.080Z,100415.22
2023-04-07T05:41:58.175Z,100413.64
2023-04-07T05:43:02.947Z,100419.09
2023-04-07T05:44:07.710Z,100423.95
2023-04-07T05:45:12.006Z,100430.16
2023-04-07T05:46:16.409Z,100433.75
2023-04-07T05:47:24.107Z,100434.14
2023-04-07T05:48:27.600Z,100432.88
2023-04-07T05:49:30.430Z,100427.16
2023-04-07T05:50:37.448Z,100424.50
2023-04-07T05:51:42.353Z,100413.37
2023-04-07T05:52:46.720Z,100420.94
2023-04-07T05:53:55.737Z,100416.92
2023-04-07T05:55:00.515Z,100423.20
2023-04-07T05:56:05.275Z,100428.02
2023-04-07T05:57:24.373Z,100425.95
2023-04-07T05:58:28.860Z,100443.00
2023-04-07T05:59:31.592Z,100440.10
2023-04-07T06:00:37.619Z,100447.61
2023-04-07T06:01:43.670Z,100442.45
2023-04-07T06:02:47.494Z,100446.00
2023-04-07T06:03:52.696Z,100450.73
2023-04-07T06:04:58.016Z,100452.03
2023-04-07T06:06:02.346Z,100452.95
2023-04-07T06:07:05.944Z,100438.13
2023-04-07T06:08:09.581Z,100431.50
2023-04-07T06:09:12.941Z,100436.34
2023-04-07T06:10:16.747Z,100438.16
2023-04-07T06:11:20.066Z,100435.85
2023-04-07T06:12:23.518Z,100427.59
2023-04-07T06:13:29.226Z,100438.06
2023-04-07T06:14:32.387Z,100444.94
2023-04-07T06:15:36.610Z,100445.79
2023-04-07T06:16:39.589Z,100445.30
2023-04-07T06:17:46.193Z,100462.77
2023-04-07T06:18:50.327Z,100452.68
2023-04-07T06:19:52.610Z,100455.39
2023-04-07T06:20:56.048Z,100460.80
2023-04-07T06:22:01.230Z,100464.51
2023-04-07T06:47:36.694Z,100526.13
2023-04-07T06:48:40.410Z,100526.55
2023-04-07T06:49:43.453Z,100534.14
2023-04-07T06:50:53.068Z,100514.75
2023-04-07T06:51:56.440Z,100531.79
2023-04-07T06:52:59.856Z,100543.98
2023-04-07T06:54:02.508Z,100545.97
2023-04-07T06:55:06.129Z,100544.00
2023-04-07T06:56:11.032Z,100552.34
2023-04-07T06:57:14.445Z,100553.48
2023-04-07T06:58:17.664Z,100558.00
2023-04-07T06:59:22.214Z,100566.81
2023-04-07T07:00:24.583Z,100563.52
2023-04-07T07:01:28.158Z,100572.52
2023-04-07T07:02:31.399Z,100564.23
2023-04-07T07:03:35.098Z,100553.44
2023-04-07T07:04:41.081Z,100547.25
2023-04-07T07:05:44.383Z,100560.77
2023-04-07T07:06:47.237Z,100561.78
2023-04-07T07:07:50.976Z,100546.61
2023-04-07T07:08:53.858Z,100555.22
2023-04-07T07:09:57.717Z,100554.85
2023-04-07T07:11:01.198Z,100559.17
2023-04-07T07:12:04.397Z,100574.69
2023-04-07T07:13:07.924Z,100566.22
2023-04-07T07:14:11.337Z,100569.50
2023-04-07T07:15:17.626Z,100571.04
2023-04-07T07:16:21.244Z,100570.37
2023-04-07T07:17:24.825Z,100565.63
2023-04-07T07:18:27.093Z,100575.48
2023-04-07T07:19:29.690Z,100555.67
2023-04-07T07:20:32.995Z,100553.48
2023-04-07T07:21:35.507Z,100557.05
2023-04-07T07:22:37.903Z,100569.00
2023-04-07T07:23:42.825Z,100559.50
2023-04-07T07:24:46.427Z,100569.81
2023-04-07T07:25:49.671Z,100553.61
2023-04-07T07:26:52.259Z,100558.97
2023-04-07T07:27:55.162Z,100554.05
2023-04-07T07:28:58.221Z,100556.41
2023-04-07T07:30:01.561Z,100550.17
2023-04-07T07:31:06.847Z,100557.64
2023-04-07T07:32:09.966Z,100554.54
2023-04-07T07:33:12.199Z,100572.80
2023-04-07T07:34:14.471Z,100559.66
2023-04-07T07:35:19.018Z,100560.78
2023-04-07T07:36:22.585Z,100573.64
2023-04-07T07:37:26.616Z,100566.32
2023-04-07T07:38:31.111Z,100567.95
2023-04-07T07:39:34.561Z,100574.23
2023-04-07T07:40:37.192Z,100577.31
2023-04-07T07:41:43.671Z,100575.58
2023-04-07T07:42:48.768Z,100580.25
2023-04-07T07:43:51.999Z,100585.13
2023-04-07T07:44:56.285Z,100583.91
2023-04-07T07:46:00.798Z,100568.24
2023-04-07T07:47:04.583Z,100580.33
2023-04-07T07:48:07.684Z,100586.09
2023-04-07T07:49:11.940Z,100582.14
2023-04-07T07:50:15.340Z,100579.17
2023-04-07T07:51:18.521Z,100579.53
2023-04-07T07:52:22.025Z,100587.00
2023-04-07T07:53:27.320Z,100582.41
2023-04-07T07:54:30.639Z,100581.61
2023-04-07T07:55:35.458Z,100582.45
2023-04-07T07:56:38.833Z,100576.28
2023-04-07T07:57:41.916Z,100584.02
2023-04-07T07:58:45.039Z,100575.91
2023-04-07T07:59:48.973Z,100576.18
2023-04-07T08:00:52.014Z,100578.48
2023-04-07T08:01:55.414Z,100579.19
2023-04-07T08:02:58.524Z,100578.27
2023-04-07T08:04:01.525Z,100576.77
2023-04-07T08:05:08.058Z,100575.92
2023-04-07T08:06:13.210Z,100575.92
2023-04-07T08:07:21.165Z,100575.30
2023-04-07T08:08:24.924Z,100572.37
2023-04-07T08:09:28.138Z,100563.16
2023-04-07T08:10:34.105Z,100577.27
2023-04-07T08:11:36.382Z,100579.22
2023-04-07T08:12:39.115Z,100575.70
2023-04-07T08:13:43.188Z,100574.82
2023-04-07T08:14:46.488Z,100568.31
2023-04-07T08:17:04.451Z,100561.05
2023-04-07T08:18:07.869Z,100563.87
2023-04-07T08:19:11.726Z,100542.00
2023-04-07T08:20:18.090Z,100550.87
2023-04-07T08:21:20.654Z,100562.41
2023-04-07T08:22:22.911Z,100558.75
2023-04-07T08:23:26.630Z,100555.28
2023-04-07T08:24:31.809Z,100563.41
2023-04-07T08:25:34.592Z,100555.41
2023-04-07T08:26:38.397Z,100557.41
2023-04-07T08:27:41.610Z,100556.59
2023-04-07T08:28:45.201Z,100553.50
2023-04-07T08:29:50.364Z,100559.05
2023-04-07T08:30:53.782Z,100558.96
2023-04-07T08:31:56.591Z,100551.55
2023-04-07T08:32:59.367Z,100556.28
2023-04-07T08:34:01.889Z,100559.02
2023-04-07T08:35:05.785Z,100548.63
2023-04-07T08:36:11.104Z,100548.48
2023-04-07T08:37:14.699Z,100544.42
2023-04-07T08:38:18.189Z,100543.73
2023-04-07T08:39:25.692Z,100539.74
2023-04-07T08:40:31.590Z,100545.58
2023-04-07T08:41:36.866Z,100554.80
2023-04-07T08:42:42.791Z,100551.56
2023-04-07T08:43:50.864Z,100545.22
2023-04-07T08:44:57.200Z,100551.23
2023-04-07T08:46:02.378Z,100538.87
2023-04-07T08:47:08.373Z,100538.25
2023-04-07T08:48:13.562Z,100532.80
2023-04-07T08:49:18.113Z,100529.94
2023-04-07T08:50:22.491Z,100537.44
2023-04-07T08:51:29.070Z,100542.39
2023-04-07T08:52:38.385Z,100544.64
2023-04-07T08:53:42.810Z,100540.90
2023-04-07T08:54:46.298Z,100547.48
2023-04-07T08:55:49.815Z,100542.98
2023-04-07T08:56:53.722Z,100547.20
2023-04-07T08:57:56.690Z,100544.52
2023-04-07T08:59:01.134Z,100531.97
2023-04-07T09:00:07.849Z,100540.98
2023-04-07T09:01:11.848Z,100541.94
2023-04-07T09:02:16.372Z,100538.73
2023-04-07T09:03:19.229Z,100539.39
2023-04-07T09:04:22.816Z,100531.61
2023-04-07T09:05:26.591Z,100541.73
2023-04-07T09:06:32.476Z,100537.55
2023-04-07T09:07:36.624Z,100545.19
2023-04-07T09:08:40.315Z,100537.73
2023-04-07T09:09:43.705Z,100535.74
2023-04-07T09:10:47.756Z,100539.64
2023-04-07T09:11:50.934Z,100532.20
2023-04-07T09:12:54.322Z,100529.29
2023-04-07T09:13:57.647Z,100536.52
2023-04-07T09:15:01.546Z,100533.08
2023-04-07T09:16:06.097Z,100527.86
2023-04-07T09:17:09.368Z,100532.94
2023-04-07T09:18:16.664Z,100530.78
2023-04-07T09:19:20.272Z,100522.21
2023-04-07T09:20:25.165Z,100538.84
2023-04-07T09:21:50.571Z,100537.24
2023-04-07T09:22:54.593Z,100534.59
2023-04-07T09:23:58.056Z,100540.67
2023-04-07T09:25:10.383Z,100533.34
2023-04-07T09:26:22.056Z,100531.54
2023-04-07T09:27:24.278Z,100527.77
2023-04-07T09:28:43.270Z,100521.92
2023-04-07T09:29:48.327Z,100530.76
2023-04-07T09:30:54.232Z,100528.92
2023-04-07T09:31:58.591Z,100526.37
2023-04-07T09:33:02.467Z,100517.91
2023-04-07T09:34:08.084Z,100516.35
2023-04-07T09:35:11.696Z,100516.22
2023-04-07T09:36:14.726Z,100527.63
2023-04-07T09:37:20.063Z,100528.10
2023-04-07T09:38:23.680Z,100527.55
2023-04-07T09:39:27.494Z,100525.83
2023-04-07T09:40:30.706Z,100527.12
2023-04-07T09:41:35.582Z,100533.09
2023-04-07T09:42:45.823Z,100539.97
2023-04-07T09:43:48.570Z,100532.00
2023-04-07T09:44:52.372Z,100523.02
2023-04-07T09:45:57.661Z,100533.30
2023-04-07T09:47:00.381Z,100533.36
2023-04-07T09:48:05.982Z,100524.02
2023-04-07T09:49:09.912Z,100528.33
2023-04-07T09:50:14.104Z,100522.09
2023-04-07T09:51:18.479Z,100523.03
2023-04-07T09:52:33.384Z,100524.83
2023-04-07T09:53:44.388Z,100522.45
2023-04-07T09:54:49.780Z,100523.69
2023-04-07T09:55:55.070Z,100515.81
2023-04-07T09:57:00.329Z,100516.70
2023-04-07T09:58:05.202Z,100523.66
2023-04-07T09:59:09.777Z,100527.53
2023-04-07T10:00:15.241Z,100533.38
2023-04-07T10:01:18.771Z,100530.05
2023-04-07T10:02:23.788Z,100527.74
2023-04-07T10:03:27.457Z,100530.11
2023-04-07T10:04:30.783Z,100528.20
2023-04-07T10:05:35.896Z,100526.50
2023-04-07T10:06:40.137Z,100532.46
2023-04-07T10:07:45.767Z,100529.37
2023-04-07T10:08:49.144Z,100533.38
2023-04-07T10:09:52.009Z,100527.27
2023-04-07T10:10:57.070Z,100532.54
2023-04-07T10:11:59.755Z,100532.48
2023-04-07T10:13:04.934Z,100535.34
2023-04-07T10:14:12.130Z,100529.80
2023-04-07T10:15:16.680Z,100535.85
2023-04-07T10:16:20.437Z,100530.05
2023-04-07T10:17:26.032Z,100528.13
2023-04-07T10:18:33.523Z,100527.56
2023-04-07T10:19:37.027Z,100541.94
2023-04-07T10:20:44.923Z,100541.30
2023-04-07T10:22:02.126Z,100539.89
2023-04-07T10:23:08.753Z,100538.54
2023-04-07T10:24:17.170Z,100536.12
2023-04-07T10:25:21.843Z,100533.75
2023-04-07T10:26:26.154Z,100538.54
2023-04-07T10:27:34.395Z,100538.73
2023-04-07T10:28:39.745Z,100537.35
2023-04-07T10:29:43.882Z,100537.88
2023-04-07T10:30:48.427Z,100539.83
2023-04-07T10:31:53.694Z,100537.81
2023-04-07T10:32:57.662Z,100531.66
2023-04-07T10:34:03.232Z,100535.30
2023-04-07T10:35:06.215Z,100528.49
2023-04-07T10:36:09.839Z,100533.05
2023-04-07T10:37:14.812Z,100532.30
2023-04-07T10:38:18.564Z,100519.56
2023-04-07T10:39:21.169Z,100516.53
2023-04-07T10:40:27.376Z,100526.50
2023-04-07T10:41:38.412Z,100525.26
2023-04-07T10:42:44.660Z,100523.13
2023-04-07T10:43:48.237Z,100520.67
2023-04-07T10:44:57.712Z,100528.91
2023-04-07T10:46:01.151Z,100527.95
2023-04-07T10:47:07.230Z,100522.45
2023-04-07T10:48:11.226Z,100523.30
2023-04-07T10:49:16.265Z,100521.39
2023-04-07T10:50:22.529Z,100523.69
2023-04-07T10:51:25.524Z,100523.23
2023-04-07T10:52:29.024Z,100526.97
2023-04-07T10:53:34.619Z,100523.44
2023-04-07T10:54:38.125Z,100525.59
2023-04-07T10:55:43.293Z,100533.48
2023-04-07T10:57:08.426Z,100524.45
2023-04-07T10:58:22.620Z,100521.77
2023-04-07T10:59:27.434Z,100522.67
2023-04-07T11:00:31.796Z,100515.58
2023-04-07T11:01:35.390Z,100521.06
2023-04-07T11:02:40.832Z,100520.88
2023-04-07T11:03:55.138Z,100515.73
2023-04-07T11:04:58.406Z,100517.75
2023-04-07T11:06:09.064Z,100522.80
2023-04-07T11:07:14.244Z,100516.03
2023-04-07T11:08:18.670Z,100516.03
2023-04-07T11:09:21.659Z,100512.34
2023-04-07T11:10:25.512Z,100522.85
2023-04-07T11:11:43.109Z,100513.66
2023-04-07T11:12:48.665Z,100507.77
2023-04-07T11:13:53.228Z,100514.30
2023-04-07T11:15:00.132Z,100501.24
2023-04-07T11:16:02.876Z,100506.67
2023-04-07T11:17:07.608Z,100506.55
2023-04-07T11:18:12.770Z,100507.20
2023-04-07T11:19:15.140Z,100510.61
2023-04-07T11:20:18.842Z,100509.92
2023-04-07T11:21:22.342Z,100510.41
2023-04-07T11:22:30.445Z,100513.72
2023-04-07T11:23:30.505Z,100507.17
2023-04-07T11:24:40.873Z,100518.52
2023-04-07T11:25:47.244Z,100507.44
2023-04-07T11:26:51.265Z,100510.81
2023-04-07T11:27:55.918Z,100515.02
2023-04-07T11:28:59.947Z,100505.70
2023-04-07T11:30:07.171Z,100501.80
2023-04-07T11:31:10.903Z,100503.83
2023-04-07T11:32:14.434Z,100511.01
2023-04-07T11:33:19.918Z,100511.58
2023-04-07T11:34:25.352Z,100515.61
2023-04-07T11:35:29.179Z,100517.90
2023-04-07T11:36:37.294Z,100510.02
2023-04-07T11:37:40.623Z,100509.27
2023-04-07T11:38:45.446Z,100517.07
2023-04-07T11:39:54.650Z,100507.31
2023-04-07T11:41:01.167Z,100508.47
2023-04-07T11:42:04.670Z,100512.17
2023-04-07T11:43:18.830Z,100507.80
2023-04-07T11:44:29.176Z,100510.45
2023-04-07T11:45:31.590Z,100519.02
2023-04-07T11:46:36.221Z,100503.75
2023-04-07T11:47:40.630Z,100502.80
2023-04-07T11:48:45.132Z,100507.80
2023-04-07T11:49:50.751Z,100512.50
2023-04-07T11:50:55.396Z,100519.37
2023-04-07T11:52:00.150Z,100520.74
2023-04-07T11:53:02.898Z,100511.86
2023-04-07T11:54:12.603Z,100503.83
2023-04-07T11:55:22.081Z,100501.42
2023-04-07T11:56:27.142Z,100509.38
2023-04-07T11:57:30.820Z,100508.67
2023-04-07T11:58:34.109Z,100510.82
2023-04-07T11:59:36.996Z,100503.42
2023-04-07T12:01:02.085Z,100496.77
2023-04-07T12:02:09.410Z,100499.33
2023-04-07T12:03:17.084Z,100498.09
2023-04-07T12:04:20.108Z,100500.39
2023-04-07T12:05:25.959Z,100503.62
2023-04-07T12:06:30.817Z,100495.91
2023-04-07T12:07:34.743Z,100501.41
2023-04-07T12:08:40.223Z,100495.15
2023-04-07T12:09:43.503Z,100492.41
2023-04-07T12:10:46.723Z,100500.64
2023-04-07T12:11:50.961Z,100490.69
2023-04-07T12:12:55.263Z,100497.49
2023-04-07T12:13:58.941Z,100499.17
2023-04-07T12:15:02.770Z,100498.77
2023-04-07T12:16:07.886Z,100501.55
2023-04-07T12:17:12.857Z,100498.34
2023-04-07T12:18:15.814Z,100500.64
2023-04-07T12:19:19.985Z,100504.62
2023-04-07T12:20:23.267Z,100503.55
2023-04-07T12:21:26.462Z,100502.72
2023-04-07T12:22:30.496Z,100500.30
2023-04-07T12:23:33.745Z,100498.03
2023-04-07T12:24:37.288Z,100495.07
2023-04-07T12:25:40.904Z,100501.27
2023-04-07T12:26:44.412Z,100501.27
2023-04-07T12:27:48.547Z,100496.84
2023-04-07T12:28:52.050Z,100496.86
2023-04-07T12:29:55.349Z,100496.84
2023-04-07T12:30:58.536Z,100502.19
2023-04-07T12:32:03.122Z,100501.49
2023-04-07T12:33:06.561Z,100490.27
2023-04-07T12:34:11.258Z,100485.70
2023-04-07T12:35:15.497Z,100488.02
2023-04-07T12:36:18.658Z,100493.72
2023-04-07T12:37:20.767Z,100489.62
2023-04-07T12:38:27.634Z,100489.79
2023-04-07T12:39:30.874Z,100488.09
2023-04-07T12:40:38.151Z,100491.62
2023-04-07T12:41:41.845Z,100486.36
2023-04-07T12:42:45.224Z,100481.84
2023-04-07T12:43:48.516Z,100476.44
2023-04-07T12:44:52.564Z,100484.95
2023-04-07T12:45:56.334Z,100481.02
2023-04-07T12:47:00.186Z,100474.16
2023-04-07T12:48:03.842Z,100481.68